Pagrindinis puslapis
METAR-TAF:

METAR-TAF

Oro uostai :

Čongčingas, Kinija

platuma: 29-31N, ilguma: 106-29E, Aukštis: 351 m

Dabartinis oras

Ataskaita buvo paskelbta 37 minutes, ne 05:00 UTC
Vėjas 4 kt iš Šiaurės, svyruoja nuo Vakarų/Šiaurės Vakarų ir Rytų/Šiaurės Rytų
Temperatūra 13°C
Drėgmė 77%
Slėgis 1020 hPa
Matomumas: 2000 m
Mažai debesys ne aukštis 2000 ft
rūkana

METAR: ZUCK 120500Z 35002MPS 300V070 2000 BR FEW020 13/09 Q1020 NOSIG

Laikas: 13:37 (05:37 UTC)

Prognozė

Ataskaita buvo paskelbta 10 valandos ir 27 minutes, ne 19:10 UTC
Prognozė galioja nuo 12 metu 00 UTC su 12 metu 24 UTC
Vėjas 4 kt iš Rytų/Šiaurės Rytų
Matomumas: 3500 m
Apsiniaukę ne aukštis 4000 ft
rūkana

TAF: ZUCK 111910Z 1200/1224 06002MPS 3500 BR OVC040 TX14/1207Z TN07/1222Z

Orai ataskaitas ir orų prognozės (METAR, TAF).

turimą stotys yra geltonos ir raudonos taškus žemėlapyje.

Perkelti pele per norėdami pamatyti stoties vardą.

Tada spustelėkite, norėdami matyti oro stebėjimo ir prognozės.

Norėdami pakeisti žemėlapį: spustelėkite ant žalios mygtukų su juodo kryžiaus žemyn,; žalią mygtuką su brūkšneliu, jei norite nutolinti; arba žalių rodyklių gretimoms žemėlapius.


METAR-TAF: